Time;durP1;ratioP1;P1;durP2;ratioP2;P2;SDS_P1;SDS_P2;PMS_P1;PMS_P2;Temp;Humidity;BMP_temperature;BMP_pressure;BME280_temperature;BME280_humidity;BME280_pressure;Samples;Min_cycle;Max_cycle;Signal;HPM_P1;HPM_P2
2021/11/01 00:00:54;0.00;0.00;0.62;0.00;0.00;0.62;1.60;0.90;;;26.60;29.70;;;;;;2257399;61;20580;-66
2021/11/01 00:03:40;0.00;0.00;0.62;0.00;0.00;0.62;2.80;1.07;;;26.60;29.70;;;;;;2257584;61;20355;-66
2021/11/01 00:06:25;0.00;0.00;0.62;0.00;0.00;0.62;1.53;1.10;;;26.60;29.70;;;;;;2257608;61;20396;-64
2021/11/01 00:09:09;0.00;0.00;0.62;0.00;0.00;0.62;2.10;1.13;;;26.60;29.70;;;;;;2257427;61;20366;-65
2021/11/01 00:11:54;0.00;0.00;0.62;0.00;0.00;0.62;2.03;1.17;;;26.60;29.70;;;;;;2257380;61;20471;-66
2021/11/01 00:14:39;0.00;0.00;0.62;0.00;0.00;0.62;1.60;1.07;;;26.60;29.70;;;;;;2257801;61;20366;-65
2021/11/01 00:17:24;0.00;0.00;0.62;0.00;0.00;0.62;1.43;1.10;;;26.60;29.70;;;;;;2257085;61;20375;-62
2021/11/01 00:20:11;0.00;0.00;0.62;0.00;0.00;0.62;1.63;1.20;;;26.60;29.70;;;;;;2257342;61;20354;-62
2021/11/01 00:22:56;0.00;0.00;0.62;0.00;0.00;0.62;2.07;1.30;;;26.60;29.70;;;;;;2257518;61;20470;-65
2021/11/01 00:25:41;0.00;0.00;0.62;0.00;0.00;0.62;1.80;1.07;;;26.60;29.70;;;;;;2257357;61;20359;-65
2021/11/01 00:28:25;0.00;0.00;0.62;0.00;0.00;0.62;2.80;1.40;;;26.60;29.70;;;;;;2257618;61;20378;-66
2021/11/01 00:31:10;0.00;0.00;0.62;0.00;0.00;0.62;2.40;1.30;;;26.50;29.60;;;;;;2257356;61;20410;-67
2021/11/01 00:33:55;0.00;0.00;0.62;0.00;0.00;0.62;2.53;1.50;;;26.60;29.70;;;;;;2257363;61;20363;-66
2021/11/01 00:36:41;0.00;0.00;0.62;0.00;0.00;0.62;1.60;1.20;;;26.50;29.60;;;;;;2257521;61;20624;-65
2021/11/01 00:39:25;0.00;0.00;0.62;0.00;0.00;0.62;1.70;1.20;;;26.50;29.60;;;;;;2257338;61;20359;-63
2021/11/01 00:42:11;0.00;0.00;0.62;0.00;0.00;0.62;2.00;1.27;;;26.50;29.60;;;;;;2257496;61;20355;-64
2021/11/01 00:44:56;0.00;0.00;0.62;0.00;0.00;0.62;1.40;1.00;;;26.60;29.70;;;;;;2257052;61;20354;-66
2021/11/01 00:47:40;0.00;0.00;0.62;0.00;0.00;0.62;1.40;0.90;;;26.60;29.70;;;;;;2257520;61;20675;-65
2021/11/01 00:50:25;0.00;0.00;0.62;0.00;0.00;0.62;1.50;0.80;;;26.50;29.60;;;;;;2257647;61;20390;-66
2021/11/01 00:53:12;0.00;0.00;0.62;0.00;0.00;0.62;1.57;1.07;;;26.50;29.60;;;;;;2257324;61;20405;-64
2021/11/01 00:55:57;0.00;0.00;0.62;0.00;0.00;0.62;1.47;0.90;;;26.50;29.60;;;;;;2258057;61;20695;-64
2021/11/01 00:58:42;0.00;0.00;0.62;0.00;0.00;0.62;1.47;0.93;;;26.50;29.60;;;;;;2258105;61;20406;-64
2021/11/01 01:01:27;0.00;0.00;0.62;0.00;0.00;0.62;1.90;1.00;;;26.50;29.60;;;;;;2258245;61;20419;-63
2021/11/01 01:04:11;0.00;0.00;0.62;0.00;0.00;0.62;1.70;1.10;;;26.50;29.60;;;;;;2257983;61;20358;-63
2021/11/01 01:06:56;0.00;0.00;0.62;0.00;0.00;0.62;2.50;1.10;;;26.60;29.70;;;;;;2257844;61;20382;-63
2021/11/01 01:09:42;0.00;0.00;0.62;0.00;0.00;0.62;1.70;0.90;;;26.50;29.60;;;;;;2258346;61;20621;-61
2021/11/01 01:12:26;0.00;0.00;0.62;0.00;0.00;0.62;1.77;0.93;;;26.50;29.60;;;;;;2258047;61;20494;-63
2021/11/01 01:15:16;0.00;0.00;0.62;0.00;0.00;0.62;1.67;0.90;;;26.50;29.60;;;;;;2257757;61;20382;-63
2021/11/01 01:18:02;0.00;0.00;0.62;0.00;0.00;0.62;2.83;1.20;;;26.50;29.50;;;;;;2258048;61;20382;-63
2021/11/01 01:20:47;0.00;0.00;0.62;0.00;0.00;0.62;3.47;1.47;;;26.50;29.40;;;;;;2258083;61;20762;-62
2021/11/01 01:23:32;0.00;0.00;0.62;0.00;0.00;0.62;2.03;1.30;;;26.50;29.40;;;;;;2258029;61;20370;-63
2021/11/01 01:26:18;0.00;0.00;0.62;0.00;0.00;0.62;2.47;1.10;;;26.50;29.40;;;;;;2257657;61;20443;-63
2021/11/01 01:29:04;0.00;0.00;0.62;0.00;0.00;0.62;3.63;1.30;;;26.50;29.30;;;;;;2257802;61;20478;-62
2021/11/01 01:31:48;0.00;0.00;0.62;0.00;0.00;0.62;2.23;1.10;;;26.50;29.30;;;;;;2258183;61;20782;-63
2021/11/01 01:34:33;0.00;0.00;0.62;0.00;0.00;0.62;2.77;1.30;;;26.50;29.30;;;;;;2258015;61;20427;-64
2021/11/01 01:37:17;0.00;0.00;0.62;0.00;0.00;0.62;1.90;1.20;;;26.50;29.30;;;;;;2257682;61;20386;-62
2021/11/01 01:40:06;0.00;0.00;0.62;0.00;0.00;0.62;1.90;1.20;;;26.40;29.20;;;;;;2257898;61;20378;-63
2021/11/01 01:42:52;0.00;0.00;0.62;0.00;0.00;0.62;2.90;1.40;;;26.40;29.20;;;;;;2260454;61;20653;-63
2021/11/01 01:45:37;0.00;0.00;0.62;0.00;0.00;0.62;2.73;1.20;;;26.40;29.30;;;;;;2257746;61;20402;-62
2021/11/01 01:48:22;0.00;0.00;0.62;0.00;0.00;0.62;2.70;1.40;;;26.40;29.20;;;;;;2257660;61;20379;-62
2021/11/01 01:51:07;0.00;0.00;0.62;0.00;0.00;0.62;2.23;1.20;;;26.40;29.20;;;;;;2257792;61;20382;-63
2021/11/01 01:53:51;0.00;0.00;0.62;0.00;0.00;0.62;4.17;1.43;;;26.40;29.20;;;;;;2258202;61;20358;-62
2021/11/01 01:56:36;0.00;0.00;0.62;0.00;0.00;0.62;2.90;1.10;;;26.40;29.20;;;;;;2257806;61;20589;-63
2021/11/01 01:59:23;0.00;0.00;0.62;0.00;0.00;0.62;3.67;1.03;;;26.40;29.20;;;;;;2257523;61;20385;-63
2021/11/01 02:02:08;0.00;0.00;0.62;0.00;0.00;0.62;2.37;0.90;;;26.40;29.20;;;;;;2257977;61;20664;-62
2021/11/01 02:04:52;0.00;0.00;0.62;0.00;0.00;0.62;3.40;1.40;;;26.30;29.20;;;;;;2257679;61;20397;-62
2021/11/01 02:07:46;0.00;0.00;0.62;0.00;0.00;0.62;2.63;1.47;;;26.30;29.20;;;;;;2257688;61;20414;-61
2021/11/01 02:10:37;0.00;0.00;0.62;0.00;0.00;0.62;2.40;1.13;;;26.30;29.20;;;;;;2257397;61;20611;-62
2021/11/01 02:13:26;0.00;0.00;0.62;0.00;0.00;0.62;1.87;1.03;;;26.30;29.20;;;;;;2257773;61;20587;-62
2021/11/01 02:16:13;0.00;0.00;0.62;0.00;0.00;0.62;1.80;1.10;;;26.30;29.20;;;;;;2258141;61;20362;-62
2021/11/01 02:19:02;0.00;0.00;0.62;0.00;0.00;0.62;4.40;1.50;;;26.30;29.20;;;;;;2257730;61;20498;-63
2021/11/01 02:21:54;0.00;0.00;0.62;0.00;0.00;0.62;2.70;1.20;;;26.30;29.20;;;;;;2257648;61;20347;-64
2021/11/01 02:24:52;0.00;0.00;0.62;0.00;0.00;0.62;5.03;1.50;;;26.20;29.10;;;;;;2257900;61;20398;-64
2021/11/01 02:27:43;0.00;0.00;0.62;0.00;0.00;0.62;2.67;1.40;;;26.20;29.10;;;;;;2257930;61;20796;-63
2021/11/01 02:30:29;0.00;0.00;0.62;0.00;0.00;0.62;4.07;1.40;;;26.20;29.10;;;;;;2257750;61;20482;-62
2021/11/01 02:33:15;0.00;0.00;0.62;0.00;0.00;0.62;2.80;1.10;;;26.20;29.10;;;;;;2257626;61;20406;-61
2021/11/01 02:36:00;0.00;0.00;0.62;0.00;0.00;0.62;3.10;1.30;;;26.20;29.10;;;;;;2257455;61;20359;-62
2021/11/01 02:38:49;0.00;0.00;0.62;0.00;0.00;0.62;4.27;1.57;;;26.20;29.10;;;;;;2257721;61;20462;-64
2021/11/01 02:41:34;0.00;0.00;0.62;0.00;0.00;0.62;3.57;1.47;;;26.20;29.20;;;;;;2257924;61;20442;-61
2021/11/01 02:44:22;0.00;0.00;0.62;0.00;0.00;0.62;4.33;1.70;;;26.20;29.10;;;;;;2257639;61;20576;-63
2021/11/01 02:47:06;0.00;0.00;0.62;0.00;0.00;0.62;6.97;1.50;;;26.10;29.10;;;;;;2257741;61;20466;-63
2021/11/01 02:49:50;0.00;0.00;0.62;0.00;0.00;0.62;3.00;1.50;;;26.10;29.10;;;;;;2257581;61;20591;-63
2021/11/01 02:52:35;0.00;0.00;0.62;0.00;0.00;0.62;2.40;1.30;;;26.10;29.10;;;;;;2257698;61;20386;-63
2021/11/01 02:55:21;0.00;0.00;0.62;0.00;0.00;0.62;3.43;1.60;;;26.10;29.20;;;;;;2257696;61;20607;-62
2021/11/01 02:58:06;0.00;0.00;0.62;0.00;0.00;0.62;4.07;1.67;;;26.10;29.20;;;;;;2257386;61;20461;-62
2021/11/01 03:00:52;0.00;0.00;0.62;0.00;0.00;0.62;3.53;1.70;;;26.10;29.20;;;;;;2257853;61;20367;-62
2021/11/01 03:03:38;0.00;0.00;0.62;0.00;0.00;0.62;4.23;1.50;;;26.10;29.20;;;;;;2257758;61;20586;-62
2021/11/01 03:06:25;0.00;0.00;0.62;0.00;0.00;0.62;3.93;1.40;;;26.10;29.20;;;;;;2257378;61;20358;-63
2021/11/01 03:09:10;0.00;0.00;0.62;0.00;0.00;0.62;4.50;2.00;;;26.00;29.10;;;;;;2257489;61;20584;-62
2021/11/01 03:11:56;0.00;0.00;0.62;0.00;0.00;0.62;4.73;1.50;;;26.00;29.10;;;;;;2257839;61;20378;-62
2021/11/01 03:14:52;0.00;0.00;0.62;0.00;0.00;0.62;4.60;1.80;;;26.00;29.20;;;;;;2257701;61;20422;-62
2021/11/01 03:17:46;0.00;0.00;0.62;0.00;0.00;0.62;4.57;1.93;;;26.00;29.20;;;;;;2255991;61;20687;-63
2021/11/01 03:20:38;0.00;0.00;0.62;0.00;0.00;0.62;3.60;1.73;;;26.00;29.20;;;;;;2253387;61;20388;-63
2021/11/01 03:23:27;0.00;0.00;0.62;0.00;0.00;0.62;3.40;1.60;;;26.00;29.20;;;;;;2253692;61;20411;-64
2021/11/01 03:26:15;0.00;0.00;0.62;0.00;0.00;0.62;3.77;1.77;;;26.00;29.20;;;;;;2253524;61;20623;-64
2021/11/01 03:29:04;0.00;0.00;0.62;0.00;0.00;0.62;3.93;1.77;;;25.90;29.10;;;;;;2253428;61;20392;-62
2021/11/01 03:31:49;0.00;0.00;0.62;0.00;0.00;0.62;4.40;2.10;;;25.90;29.10;;;;;;2253367;61;20442;-64
2021/11/01 03:34:36;0.00;0.00;0.62;0.00;0.00;0.62;2.73;1.63;;;25.90;29.10;;;;;;2253853;61;20720;-64
2021/11/01 03:37:21;0.00;0.00;0.62;0.00;0.00;0.62;4.30;1.73;;;25.90;29.10;;;;;;2253706;61;20380;-64
2021/11/01 03:40:09;0.00;0.00;0.62;0.00;0.00;0.62;3.30;1.80;;;25.90;29.10;;;;;;2253344;61;20356;-63
2021/11/01 03:42:55;0.00;0.00;0.62;0.00;0.00;0.62;3.87;1.80;;;25.80;29.00;;;;;;2253404;61;20437;-63
2021/11/01 03:45:40;0.00;0.00;0.62;0.00;0.00;0.62;4.27;1.80;;;25.80;29.00;;;;;;2253296;61;20392;-63
2021/11/01 03:48:26;0.00;0.00;0.62;0.00;0.00;0.62;4.63;1.93;;;25.80;29.00;;;;;;2253549;61;20431;-62
2021/11/01 03:54:19;0.00;0.00;0.62;0.00;0.00;0.62;4.13;1.87;;;25.80;29.00;;;;;;2253382;61;20372;-63
2021/11/01 03:57:05;0.00;0.00;0.62;0.00;0.00;0.62;4.67;2.13;;;25.80;29.00;;;;;;2253186;61;20435;-62
2021/11/01 03:59:52;0.00;0.00;0.62;0.00;0.00;0.62;3.53;2.00;;;25.80;29.00;;;;;;2253660;61;20380;-62
2021/11/01 04:02:37;0.00;0.00;0.62;0.00;0.00;0.62;3.67;1.60;;;25.80;29.00;;;;;;2253655;61;20371;-64
2021/11/01 04:05:22;0.00;0.00;0.62;0.00;0.00;0.62;3.47;1.50;;;25.70;29.00;;;;;;2253199;61;20363;-60
2021/11/01 04:08:08;0.00;0.00;0.62;0.00;0.00;0.62;3.77;1.80;;;25.70;29.00;;;;;;2253538;61;20788;-64
2021/11/01 04:10:53;0.00;0.00;0.62;0.00;0.00;0.62;4.10;2.03;;;25.70;28.90;;;;;;2253674;61;20407;-63
2021/11/01 04:13:38;0.00;0.00;0.62;0.00;0.00;0.62;4.63;2.13;;;25.70;28.90;;;;;;2253354;61;20355;-63
2021/11/01 04:16:29;0.00;0.00;0.62;0.00;0.00;0.62;3.03;1.57;;;25.70;28.90;;;;;;2253263;61;20356;-62
2021/11/01 04:22:03;0.00;0.00;0.62;0.00;0.00;0.62;4.77;2.10;;;25.60;28.90;;;;;;2253616;61;20443;-61
2021/11/01 04:24:50;0.00;0.00;0.62;0.00;0.00;0.62;4.40;1.70;;;25.60;28.90;;;;;;2253476;61;20480;-62
2021/11/01 04:27:35;0.00;0.00;0.62;0.00;0.00;0.62;3.70;1.60;;;25.60;28.90;;;;;;2253047;61;20400;-63
2021/11/01 04:30:20;0.00;0.00;0.62;0.00;0.00;0.62;3.67;1.70;;;25.60;29.40;;;;;;2253540;61;20355;-64
2021/11/01 04:33:08;0.00;0.00;0.62;0.00;0.00;0.62;5.80;2.10;;;25.50;28.90;;;;;;2253546;61;20735;-63
2021/11/01 04:35:52;0.00;0.00;0.62;0.00;0.00;0.62;3.23;1.63;;;25.50;28.90;;;;;;2253140;61;20752;-62
2021/11/01 04:38:46;0.00;0.00;0.62;0.00;0.00;0.62;3.80;1.57;;;25.50;28.90;;;;;;2253213;61;20387;-63
2021/11/01 04:41:58;0.00;0.00;0.62;0.00;0.00;0.62;4.17;1.70;;;25.50;28.90;;;;;;2253143;61;20360;-62
2021/11/01 04:53:35;0.00;0.00;0.62;0.00;0.00;0.62;3.93;1.67;;;25.40;28.90;;;;;;2253304;61;20367;-63
2021/11/01 04:56:25;0.00;0.00;0.62;0.00;0.00;0.62;3.07;1.40;;;25.40;28.90;;;;;;2252949;61;20368;-63
2021/11/01 04:59:12;0.00;0.00;0.62;0.00;0.00;0.62;3.93;1.97;;;25.40;28.90;;;;;;2253544;61;20704;-64
2021/11/01 05:01:57;0.00;0.00;0.62;0.00;0.00;0.62;2.87;1.20;;;25.40;29.00;;;;;;2253489;61;20791;-62
2021/11/01 05:04:43;0.00;0.00;0.62;0.00;0.00;0.62;2.83;1.40;;;25.40;29.00;;;;;;2252728;61;20398;-63
2021/11/01 05:07:28;0.00;0.00;0.62;0.00;0.00;0.62;3.40;1.60;;;25.40;29.00;;;;;;2253445;61;20751;-62
2021/11/01 05:10:27;0.00;0.00;0.62;0.00;0.00;0.62;4.60;1.77;;;25.40;29.00;;;;;;2253344;61;20476;-62
2021/11/01 05:13:18;0.00;0.00;0.62;0.00;0.00;0.62;3.70;1.83;;;25.40;29.50;;;;;;2253227;61;20416;-63
2021/11/01 05:16:32;0.00;0.00;0.62;0.00;0.00;0.62;3.60;1.90;;;25.40;29.00;;;;;;2253152;61;20740;-62
2021/11/01 05:22:06;0.00;0.00;0.62;0.00;0.00;0.62;4.67;1.77;;;25.30;29.00;;;;;;2253424;61;20388;-61
2021/11/01 05:25:00;0.00;0.00;0.62;0.00;0.00;0.62;2.77;1.40;;;25.30;29.00;;;;;;2253198;61;20411;-63
2021/11/01 05:30:36;0.00;0.00;0.62;0.00;0.00;0.62;6.03;1.50;;;25.30;29.00;;;;;;2253070;61;20720;-63
2021/11/01 05:33:42;0.00;0.00;0.62;0.00;0.00;0.62;3.10;1.40;;;25.30;29.00;;;;;;2252983;61;20360;-59
2021/11/01 05:36:28;0.00;0.00;0.62;0.00;0.00;0.62;3.80;1.40;;;25.30;29.00;;;;;;2253300;61;20368;-62
2021/11/01 05:39:13;0.00;0.00;0.62;0.00;0.00;0.62;6.40;1.60;;;25.30;29.00;;;;;;2253069;61;20590;-63
2021/11/01 05:41:58;0.00;0.00;0.62;0.00;0.00;0.62;4.00;1.50;;;25.30;29.00;;;;;;2253847;61;20391;-63
2021/11/01 05:44:42;0.00;0.00;0.62;0.00;0.00;0.62;4.47;2.13;;;25.30;29.00;;;;;;2253745;61;20436;-64
2021/11/01 05:47:27;0.00;0.00;0.62;0.00;0.00;0.62;4.00;1.60;;;25.30;29.00;;;;;;2254056;61;20391;-64
2021/11/01 05:50:13;0.00;0.00;0.62;0.00;0.00;0.62;3.77;1.90;;;25.30;29.00;;;;;;2254104;61;20360;-62
2021/11/01 05:52:59;0.00;0.00;0.62;0.00;0.00;0.62;3.70;1.70;;;25.20;28.90;;;;;;2253546;61;20407;-64
2021/11/01 05:59:15;0.00;0.00;0.62;0.00;0.00;0.62;3.20;1.83;;;25.20;28.90;;;;;;2252262;61;20399;-61
2021/11/01 06:05:22;0.00;0.00;0.62;0.00;0.00;0.62;3.97;1.60;;;25.20;28.90;;;;;;2253711;61;20436;-64
2021/11/01 06:08:26;0.00;0.00;0.62;0.00;0.00;0.62;4.90;1.67;;;25.20;28.90;;;;;;2253692;61;20596;-64
2021/11/01 06:14:11;0.00;0.00;0.62;0.00;0.00;0.62;3.10;1.80;;;25.20;29.40;;;;;;2253712;61;20363;-63
2021/11/01 06:16:55;0.00;0.00;0.62;0.00;0.00;0.62;5.60;1.70;;;25.20;28.90;;;;;;2253845;61;20423;-64
2021/11/01 06:19:40;0.00;0.00;0.62;0.00;0.00;0.62;2.90;1.77;;;25.10;28.80;;;;;;2253721;61;20384;-63
2021/11/01 06:22:25;0.00;0.00;0.62;0.00;0.00;0.62;3.40;1.40;;;25.10;28.80;;;;;;2253646;61;20365;-64
2021/11/01 06:25:13;0.00;0.00;0.62;0.00;0.00;0.62;3.00;1.50;;;25.10;28.80;;;;;;2253473;61;20363;-65
2021/11/01 06:27:58;0.00;0.00;0.62;0.00;0.00;0.62;4.20;1.80;;;25.10;28.80;;;;;;2254001;61;20458;-64
2021/11/01 06:30:51;0.00;0.00;0.62;0.00;0.00;0.62;4.47;1.63;;;25.10;28.80;;;;;;2253894;61;20713;-64
2021/11/01 06:42:34;0.00;0.00;0.62;0.00;0.00;0.62;6.40;1.80;;;25.00;28.80;;;;;;2254090;61;20612;-62
2021/11/01 06:45:30;0.00;0.00;0.62;0.00;0.00;0.62;3.43;1.80;;;25.00;28.80;;;;;;2253646;61;20364;-63
2021/11/01 06:54:25;0.00;0.00;0.62;0.00;0.00;0.62;5.40;1.70;;;24.90;28.80;;;;;;2253828;61;20682;-61
2021/11/01 07:15:27;0.00;0.00;0.62;0.00;0.00;0.62;3.87;1.53;;;24.80;28.90;;;;;;2253641;61;20363;-60
2021/11/01 07:18:17;0.00;0.00;0.62;0.00;0.00;0.62;3.10;1.63;;;24.80;28.90;;;;;;2253335;61;20414;-64
2021/11/01 07:21:56;0.00;0.00;0.62;0.00;0.00;0.62;4.97;2.13;;;24.80;28.90;;;;;;2253372;61;20398;-62
2021/11/01 07:30:51;0.00;0.00;0.62;0.00;0.00;0.62;3.93;1.73;;;24.80;29.00;;;;;;2253384;61;20371;-62
2021/11/01 08:22:46;0.00;0.00;0.62;0.00;0.00;0.62;3.17;1.80;;;24.90;29.30;;;;;;2253631;61;20367;-63
2021/11/01 08:46:46;0.00;0.00;0.62;0.00;0.00;0.62;3.33;1.90;;;25.00;29.20;;;;;;2248730;61;20372;-63
2021/11/01 09:02:35;0.00;0.00;0.62;0.00;0.00;0.62;3.20;1.40;;;25.10;29.30;;;;;;2248605;61;20398;-66
2021/11/01 09:26:34;0.00;0.00;0.62;0.00;0.00;0.62;3.57;1.50;;;25.20;29.70;;;;;;2249683;61;20391;-62
2021/11/01 09:35:51;0.00;0.00;0.62;0.00;0.00;0.62;2.50;1.40;;;25.30;29.70;;;;;;2237211;62;20371;-62
2021/11/01 09:39:40;0.00;0.00;0.62;0.00;0.00;0.62;3.10;1.73;;;25.30;29.70;;;;;;2237119;62;20504;-63
2021/11/01 09:41:40;0.00;0.00;0.62;0.00;0.00;0.62;3.57;1.60;;;25.40;29.70;;;;;;2249532;61;20368;-63
2021/11/01 09:44:26;0.00;0.00;0.62;0.00;0.00;0.62;3.00;1.67;;;25.40;29.70;;;;;;2249922;61;20388;-66
2021/11/01 09:47:12;0.00;0.00;0.62;0.00;0.00;0.62;2.83;1.23;;;25.40;29.70;;;;;;2249788;61;20593;-64
2021/11/01 09:49:58;0.00;0.00;0.62;0.00;0.00;0.62;2.40;1.47;;;25.40;29.70;;;;;;2249909;61;20473;-64
2021/11/01 09:52:46;0.00;0.00;0.62;0.00;0.00;0.62;2.10;1.30;;;25.40;29.60;;;;;;2249500;61;20796;-65
2021/11/01 10:01:26;0.00;0.00;0.62;0.00;0.00;0.62;1.80;1.20;;;25.50;29.70;;;;;;2249661;61;20357;-63
2021/11/01 10:04:17;0.00;0.00;0.62;0.00;0.00;0.62;2.33;1.40;;;25.50;29.60;;;;;;2249721;61;20368;-65
2021/11/01 10:07:30;0.00;0.00;0.62;0.00;0.00;0.62;4.03;1.73;;;25.50;29.50;;;;;;2249454;61;20436;-64
2021/11/01 10:10:16;0.00;0.00;0.62;0.00;0.00;0.62;3.33;1.40;;;25.60;29.60;;;;;;2249762;61;20360;-66
2021/11/01 10:13:01;0.00;0.00;0.62;0.00;0.00;0.62;4.90;1.60;;;25.60;29.50;;;;;;2249423;61;20376;-65
2021/11/01 10:18:57;0.00;0.00;0.62;0.00;0.00;0.62;2.20;1.40;;;25.60;29.50;;;;;;2249582;61;20408;-63
2021/11/01 10:21:53;0.00;0.00;0.62;0.00;0.00;0.62;3.20;1.60;;;25.70;29.50;;;;;;2249975;61;20743;-65
2021/11/01 10:24:41;0.00;0.00;0.62;0.00;0.00;0.62;2.73;1.60;;;25.60;29.40;;;;;;2250175;61;20361;-65
2021/11/01 10:27:33;0.00;0.00;0.62;0.00;0.00;0.62;2.87;1.40;;;25.70;29.40;;;;;;2249775;61;20424;-63
2021/11/01 10:30:23;0.00;0.00;0.62;0.00;0.00;0.62;3.37;1.50;;;25.70;29.40;;;;;;2249641;61;20497;-66
2021/11/01 10:33:09;0.00;0.00;0.62;0.00;0.00;0.62;2.57;1.50;;;25.70;29.40;;;;;;2249778;61;20749;-64
2021/11/01 10:35:54;0.00;0.00;0.62;0.00;0.00;0.62;5.00;1.47;;;25.70;29.30;;;;;;2250250;61;20724;-63
2021/11/01 10:38:42;0.00;0.00;0.62;0.00;0.00;0.62;2.57;1.40;;;25.70;29.30;;;;;;2249676;61;20428;-65
2021/11/01 10:41:34;0.00;0.00;0.62;0.00;0.00;0.62;2.37;1.23;;;25.70;29.30;;;;;;2249704;61;20617;-63
2021/11/01 10:44:50;0.00;0.00;0.62;0.00;0.00;0.62;2.73;1.50;;;25.70;29.30;;;;;;2249599;61;20361;-66
2021/11/01 10:56:15;0.00;0.00;0.62;0.00;0.00;0.62;1.90;1.07;;;25.70;29.30;;;;;;2249773;61;20419;-63
2021/11/01 11:12:26;0.00;0.00;0.62;0.00;0.00;0.62;1.90;1.00;;;25.80;29.20;;;;;;2249795;61;20397;-65
2021/11/01 11:15:14;0.00;0.00;0.62;0.00;0.00;0.62;1.70;0.97;;;25.80;29.20;;;;;;2249534;61;20408;-65
2021/11/01 11:24:27;0.00;0.00;0.62;0.00;0.00;0.62;2.23;1.23;;;25.80;29.20;;;;;;2250037;61;20385;-63
2021/11/01 11:27:18;0.00;0.00;0.62;0.00;0.00;0.62;2.50;1.37;;;25.80;29.20;;;;;;2249407;61;20389;-65
2021/11/01 11:39:22;0.00;0.00;0.62;0.00;0.00;0.62;3.20;1.10;;;25.80;29.30;;;;;;2249473;61;20400;-62
2021/11/01 11:51:06;0.00;0.00;0.62;0.00;0.00;0.62;1.80;1.07;;;25.80;29.30;;;;;;2249567;61;20481;-62
2021/11/01 11:53:59;0.00;0.00;0.62;0.00;0.00;0.62;2.97;1.33;;;25.90;29.40;;;;;;2250386;61;20395;-66
2021/11/01 11:56:44;0.00;0.00;0.62;0.00;0.00;0.62;2.43;1.37;;;25.90;29.40;;;;;;2252564;61;20371;-63
2021/11/01 11:59:34;0.00;0.00;0.62;0.00;0.00;0.62;3.47;1.93;;;25.90;29.40;;;;;;2481369;53;20407;-65
2021/11/01 12:02:38;0.00;0.00;0.62;0.00;0.00;0.62;2.60;1.57;;;25.90;29.50;;;;;;2253041;61;20396;-66
2021/11/01 12:05:36;0.00;0.00;0.62;0.00;0.00;0.62;2.43;1.40;;;25.90;29.50;;;;;;2253002;61;20351;-63
2021/11/01 12:08:45;0.00;0.00;0.62;0.00;0.00;0.62;2.60;1.60;;;26.00;29.50;;;;;;2253875;61;20763;-63
2021/11/01 12:11:39;0.00;0.00;0.62;0.00;0.00;0.62;3.00;1.40;;;26.00;29.50;;;;;;2253610;61;20383;-64
2021/11/01 12:17:20;0.00;0.00;0.62;0.00;0.00;0.62;3.90;1.60;;;26.10;29.50;;;;;;2253204;61;20376;-66
2021/11/01 12:20:09;0.00;0.00;0.62;0.00;0.00;0.62;5.40;1.90;;;26.10;29.50;;;;;;2253680;61;20380;-66
2021/11/01 12:23:03;0.00;0.00;0.62;0.00;0.00;0.62;2.23;1.43;;;26.10;29.50;;;;;;2253979;61;20370;-63
2021/11/01 12:25:48;0.00;0.00;0.62;0.00;0.00;0.62;4.93;1.50;;;26.10;29.40;;;;;;2253539;61;20735;-65
2021/11/01 12:28:33;0.00;0.00;0.62;0.00;0.00;0.62;2.90;1.80;;;26.20;29.40;;;;;;2253387;61;20431;-65
2021/11/01 12:31:18;0.00;0.00;0.62;0.00;0.00;0.62;2.30;1.40;;;26.20;29.40;;;;;;2253478;61;20568;-65
2021/11/01 12:34:14;0.00;0.00;0.62;0.00;0.00;0.62;2.83;1.43;;;26.20;29.30;;;;;;2253800;61;20727;-65
2021/11/01 12:39:57;0.00;0.00;0.62;0.00;0.00;0.62;2.00;1.40;;;26.20;29.30;;;;;;2253260;61;20368;-65
2021/11/01 12:42:49;0.00;0.00;0.62;0.00;0.00;0.62;2.87;1.43;;;26.20;29.30;;;;;;2253580;61;20368;-65
2021/11/01 12:57:52;0.00;0.00;0.62;0.00;0.00;0.62;2.17;1.30;;;26.50;29.40;;;;;;2254004;61;20387;-64
2021/11/01 13:00:40;0.00;0.00;0.62;0.00;0.00;0.62;2.20;1.20;;;26.50;29.30;;;;;;2254234;61;20727;-66
2021/11/01 13:03:25;0.00;0.00;0.62;0.00;0.00;0.62;2.80;1.60;;;26.50;29.30;;;;;;2254237;61;20356;-66
2021/11/01 13:06:18;0.00;0.00;0.62;0.00;0.00;0.62;2.00;1.17;;;26.60;29.30;;;;;;2254070;61;20359;-65
2021/11/01 13:09:09;0.00;0.00;0.62;0.00;0.00;0.62;2.50;1.70;;;26.60;29.30;;;;;;2254066;61;20383;-64
2021/11/01 13:14:50;0.00;0.00;0.62;0.00;0.00;0.62;1.60;1.10;;;26.70;29.30;;;;;;2254400;61;20351;-66
2021/11/01 13:20:48;0.00;0.00;0.62;0.00;0.00;0.62;2.33;1.57;;;26.80;29.20;;;;;;2253966;61;20428;-63
2021/11/01 13:23:36;0.00;0.00;0.62;0.00;0.00;0.62;1.80;1.13;;;26.80;29.20;;;;;;2254032;61;20383;-65
2021/11/01 13:26:35;0.00;0.00;0.62;0.00;0.00;0.62;2.63;1.30;;;26.80;29.20;;;;;;2254153;61;20582;-63
2021/11/01 13:35:41;0.00;0.00;0.62;0.00;0.00;0.62;1.70;1.20;;;26.90;29.20;;;;;;2254201;61;20600;-63
2021/11/01 13:38:30;0.00;0.00;0.62;0.00;0.00;0.62;2.77;1.20;;;27.00;29.20;;;;;;2253884;61;20454;-66
2021/11/01 13:41:22;0.00;0.00;0.62;0.00;0.00;0.62;1.80;1.07;;;27.00;29.10;;;;;;2254227;61;20399;-65
2021/11/01 13:44:10;0.00;0.00;0.62;0.00;0.00;0.62;2.17;1.40;;;27.00;29.00;;;;;;2254395;61;20396;-65
2021/11/01 13:47:00;0.00;0.00;0.62;0.00;0.00;0.62;2.10;1.20;;;27.10;29.00;;;;;;2253552;61;20403;-63
2021/11/01 13:49:48;0.00;0.00;0.62;0.00;0.00;0.62;1.97;1.30;;;27.10;29.00;;;;;;2253936;61;20411;-64
2021/11/01 13:52:37;0.00;0.00;0.62;0.00;0.00;0.62;2.10;1.20;;;27.10;28.90;;;;;;2254093;61;20426;-65
2021/11/01 13:55:33;0.00;0.00;0.62;0.00;0.00;0.62;1.70;1.20;;;27.10;28.90;;;;;;2253887;61;20574;-65
2021/11/01 14:16:24;0.00;0.00;0.62;0.00;0.00;0.62;2.23;1.30;;;27.30;28.90;;;;;;2253672;61;20360;-65
2021/11/01 14:28:41;0.00;0.00;0.62;0.00;0.00;0.62;2.00;1.27;;;27.20;28.80;;;;;;2253868;61;20383;-64
2021/11/01 15:02:36;0.00;0.00;0.62;0.00;0.00;0.62;1.80;1.30;;;27.20;28.70;;;;;;2253880;61;20352;-65
2021/11/01 15:06:29;0.00;0.00;0.62;0.00;0.00;0.62;2.23;1.20;;;27.30;28.80;;;;;;2253786;61;20388;-66
2021/11/01 15:20:12;0.00;0.00;0.62;0.00;0.00;0.62;2.60;1.30;;;27.30;28.60;;;;;;2253860;61;20367;-64
2021/11/01 15:23:04;0.00;0.00;0.62;0.00;0.00;0.62;1.43;0.97;;;27.30;28.60;;;;;;2253583;61;20363;-64
2021/11/01 15:26:09;0.00;0.00;0.62;0.00;0.00;0.62;1.73;1.17;;;27.30;28.60;;;;;;2253466;61;20511;-64
2021/11/01 15:29:13;0.00;0.00;0.62;0.00;0.00;0.62;1.43;0.90;;;27.30;28.60;;;;;;2253162;61;20426;-65
2021/11/01 15:40:35;0.00;0.00;0.62;0.00;0.00;0.62;1.70;1.10;;;27.30;28.50;;;;;;2253597;61;20688;-65
2021/11/01 16:20:02;0.00;0.00;0.62;0.00;0.00;0.62;1.77;0.90;;;27.20;28.70;;;;;;2253645;61;20443;-65
2021/11/01 16:22:49;0.00;0.00;0.62;0.00;0.00;0.62;1.50;1.00;;;27.20;28.80;;;;;;2253607;61;20352;-65
2021/11/01 16:25:34;0.00;0.00;0.62;0.00;0.00;0.62;2.23;1.00;;;27.20;28.80;;;;;;2252827;61;20359;-63
2021/11/01 16:28:21;0.00;0.00;0.62;0.00;0.00;0.62;1.53;0.90;;;27.20;28.80;;;;;;2253355;61;20459;-65
2021/11/01 16:33:55;0.00;0.00;0.62;0.00;0.00;0.62;2.13;1.27;;;27.20;28.80;;;;;;2253553;61;20771;-65
2021/11/01 16:36:49;0.00;0.00;0.62;0.00;0.00;0.62;1.83;1.07;;;27.20;28.80;;;;;;2253351;61;20372;-66
2021/11/01 16:42:30;0.00;0.00;0.62;0.00;0.00;0.62;1.50;1.00;;;27.20;28.80;;;;;;2253674;61;20824;-67
2021/11/01 16:45:35;0.00;0.00;0.62;0.00;0.00;0.62;1.40;0.80;;;27.10;28.70;;;;;;2253566;61;20375;-61
2021/11/01 16:48:22;0.00;0.00;0.62;0.00;0.00;0.62;2.27;1.13;;;27.20;28.80;;;;;;2253545;61;20400;-67
2021/11/01 16:51:07;0.00;0.00;0.62;0.00;0.00;0.62;1.50;1.00;;;27.20;28.80;;;;;;2253352;61;20391;-62
2021/11/01 16:53:52;0.00;0.00;0.62;0.00;0.00;0.62;1.73;1.03;;;27.20;28.80;;;;;;2253494;61;20427;-63
2021/11/01 16:56:51;0.00;0.00;0.62;0.00;0.00;0.62;1.77;1.00;;;27.20;28.90;;;;;;2253329;61;20399;-65
2021/11/01 17:05:52;0.00;0.00;0.62;0.00;0.00;0.62;1.90;0.80;;;27.10;28.80;;;;;;2253351;61;20387;-65
2021/11/01 17:30:19;0.00;0.00;0.62;0.00;0.00;0.62;1.50;1.00;;;27.10;28.90;;;;;;2253394;61;20394;-63
2021/11/01 17:36:28;0.00;0.00;0.62;0.00;0.00;0.62;2.57;0.90;;;27.10;28.90;;;;;;2247524;61;20378;-66
2021/11/01 18:44:07;0.00;0.00;0.62;0.00;0.00;0.62;1.50;0.90;;;27.00;28.90;;;;;;2250184;61;20381;-63
2021/11/01 18:52:56;0.00;0.00;0.62;0.00;0.00;0.62;1.80;1.40;;;27.00;28.90;;;;;;2249851;61;20376;-66
2021/11/01 18:55:49;0.00;0.00;0.62;0.00;0.00;0.62;1.93;1.53;;;27.00;28.90;;;;;;2248995;61;20377;-63
2021/11/01 18:58:38;0.00;0.00;0.62;0.00;0.00;0.62;1.50;1.17;;;27.00;28.90;;;;;;2249867;61;20384;-64
2021/11/01 19:01:23;0.00;0.00;0.62;0.00;0.00;0.62;1.90;1.10;;;27.00;28.90;;;;;;2249818;61;20392;-64
2021/11/01 19:04:28;0.00;0.00;0.62;0.00;0.00;0.62;1.87;1.20;;;27.00;28.80;;;;;;2249506;61;20368;-63
2021/11/01 19:07:37;0.00;0.00;0.62;0.00;0.00;0.62;2.10;1.40;;;27.00;28.90;;;;;;2249969;61;20447;-66
2021/11/01 20:03:06;0.00;0.00;0.62;0.00;0.00;0.62;1.50;1.10;;;26.80;28.90;;;;;;2249683;61;20748;-65
2021/11/01 20:05:52;0.00;0.00;0.62;0.00;0.00;0.62;1.50;1.00;;;26.80;28.90;;;;;;2249739;61;20629;-67
2021/11/01 20:14:57;0.00;0.00;0.62;0.00;0.00;0.62;1.80;1.30;;;26.80;28.90;;;;;;2249547;61;20745;-65